sensor_id;sensor_type;location;lat;lon;timestamp;temperature;humidity
21312;DHT22;18076;52.154;10.570;2024-01-27T00:00:13;5.10;99.90
21312;DHT22;18076;52.154;10.570;2024-01-27T00:02:39;5.10;99.90
21312;DHT22;18076;52.154;10.570;2024-01-27T00:05:05;5.10;99.90
21312;DHT22;18076;52.154;10.570;2024-01-27T00:07:30;5.10;99.90
21312;DHT22;18076;52.154;10.570;2024-01-27T00:09:56;5.10;99.90
21312;DHT22;18076;52.154;10.570;2024-01-27T00:12:23;5.10;99.90
21312;DHT22;18076;52.154;10.570;2024-01-27T00:14:49;5.10;99.90
21312;DHT22;18076;52.154;10.570;2024-01-27T00:17:14;5.10;99.90
21312;DHT22;18076;52.154;10.570;2024-01-27T00:19:40;5.10;99.90
21312;DHT22;18076;52.154;10.570;2024-01-27T00:22:07;5.10;99.90
21312;DHT22;18076;52.154;10.570;2024-01-27T00:24:32;5.20;99.90
21312;DHT22;18076;52.154;10.570;2024-01-27T00:26:58;5.10;99.90
21312;DHT22;18076;52.154;10.570;2024-01-27T00:29:23;5.10;99.90
21312;DHT22;18076;52.154;10.570;2024-01-27T00:31:49;5.10;99.90
21312;DHT22;18076;52.154;10.570;2024-01-27T00:34:16;5.20;99.90
21312;DHT22;18076;52.154;10.570;2024-01-27T00:36:41;5.10;99.90
21312;DHT22;18076;52.154;10.570;2024-01-27T00:39:16;5.20;99.90
21312;DHT22;18076;52.154;10.570;2024-01-27T00:41:42;5.20;99.90
21312;DHT22;18076;52.154;10.570;2024-01-27T00:44:08;5.20;99.90
21312;DHT22;18076;52.154;10.570;2024-01-27T00:46:34;5.20;99.90
21312;DHT22;18076;52.154;10.570;2024-01-27T00:48:59;5.20;99.90
21312;DHT22;18076;52.154;10.570;2024-01-27T00:51:25;5.20;99.90
21312;DHT22;18076;52.154;10.570;2024-01-27T00:53:50;5.30;99.90
21312;DHT22;18076;52.154;10.570;2024-01-27T00:56:16;5.20;99.90
21312;DHT22;18076;52.154;10.570;2024-01-27T00:58:41;5.20;99.90
21312;DHT22;18076;52.154;10.570;2024-01-27T01:01:07;5.20;99.90
21312;DHT22;18076;52.154;10.570;2024-01-27T01:03:32;5.20;99.90
21312;DHT22;18076;52.154;10.570;2024-01-27T01:05:58;5.20;99.90
21312;DHT22;18076;52.154;10.570;2024-01-27T01:08:23;5.20;99.90
21312;DHT22;18076;52.154;10.570;2024-01-27T01:10:49;5.20;99.90
21312;DHT22;18076;52.154;10.570;2024-01-27T01:13:14;5.20;99.90
21312;DHT22;18076;52.154;10.570;2024-01-27T01:15:40;5.20;99.90
21312;DHT22;18076;52.154;10.570;2024-01-27T01:18:06;5.20;99.90
21312;DHT22;18076;52.154;10.570;2024-01-27T01:20:31;5.20;99.90
21312;DHT22;18076;52.154;10.570;2024-01-27T01:22:58;5.20;99.90
21312;DHT22;18076;52.154;10.570;2024-01-27T01:25:23;5.10;99.90
21312;DHT22;18076;52.154;10.570;2024-01-27T01:27:49;5.10;99.90
21312;DHT22;18076;52.154;10.570;2024-01-27T01:30:15;5.00;99.90
21312;DHT22;18076;52.154;10.570;2024-01-27T01:32:42;5.00;99.90
21312;DHT22;18076;52.154;10.570;2024-01-27T01:35:08;5.00;99.90
21312;DHT22;18076;52.154;10.570;2024-01-27T01:37:33;4.90;99.90
21312;DHT22;18076;52.154;10.570;2024-01-27T01:39:59;4.90;99.90
21312;DHT22;18076;52.154;10.570;2024-01-27T01:42:24;4.90;99.90
21312;DHT22;18076;52.154;10.570;2024-01-27T01:45:16;4.90;99.90
21312;DHT22;18076;52.154;10.570;2024-01-27T01:47:42;4.90;99.90
21312;DHT22;18076;52.154;10.570;2024-01-27T01:50:08;4.90;99.90
21312;DHT22;18076;52.154;10.570;2024-01-27T01:52:33;4.80;99.90
21312;DHT22;18076;52.154;10.570;2024-01-27T01:54:59;4.80;99.90
21312;DHT22;18076;52.154;10.570;2024-01-27T01:57:25;4.80;99.90
21312;DHT22;18076;52.154;10.570;2024-01-27T01:59:50;4.80;99.90
21312;DHT22;18076;52.154;10.570;2024-01-27T02:02:16;4.80;99.90
21312;DHT22;18076;52.154;10.570;2024-01-27T02:04:41;4.80;99.90
21312;DHT22;18076;52.154;10.570;2024-01-27T02:07:07;4.80;99.90
21312;DHT22;18076;52.154;10.570;2024-01-27T02:09:33;4.80;99.90
21312;DHT22;18076;52.154;10.570;2024-01-27T02:11:58;4.90;99.90
21312;DHT22;18076;52.154;10.570;2024-01-27T02:14:24;4.90;99.90
21312;DHT22;18076;52.154;10.570;2024-01-27T02:16:51;4.90;99.90
21312;DHT22;18076;52.154;10.570;2024-01-27T02:19:17;5.00;99.90
21312;DHT22;18076;52.154;10.570;2024-01-27T02:21:42;5.00;99.90
21312;DHT22;18076;52.154;10.570;2024-01-27T02:24:08;5.00;99.90
21312;DHT22;18076;52.154;10.570;2024-01-27T02:26:34;5.00;99.90
21312;DHT22;18076;52.154;10.570;2024-01-27T02:29:00;5.00;99.90
21312;DHT22;18076;52.154;10.570;2024-01-27T02:31:25;5.10;99.90
21312;DHT22;18076;52.154;10.570;2024-01-27T02:33:51;5.10;99.90
21312;DHT22;18076;52.154;10.570;2024-01-27T02:36:16;5.10;99.90
21312;DHT22;18076;52.154;10.570;2024-01-27T02:38:42;5.10;99.90
21312;DHT22;18076;52.154;10.570;2024-01-27T02:41:09;5.10;99.90
21312;DHT22;18076;52.154;10.570;2024-01-27T02:43:34;5.10;99.90
21312;DHT22;18076;52.154;10.570;2024-01-27T02:46:00;5.10;99.90
21312;DHT22;18076;52.154;10.570;2024-01-27T02:48:25;5.10;99.90
21312;DHT22;18076;52.154;10.570;2024-01-27T02:50:51;5.10;99.90
21312;DHT22;18076;52.154;10.570;2024-01-27T02:53:16;5.10;99.90
21312;DHT22;18076;52.154;10.570;2024-01-27T02:55:42;5.10;99.90
21312;DHT22;18076;52.154;10.570;2024-01-27T02:58:07;5.10;99.90
21312;DHT22;18076;52.154;10.570;2024-01-27T03:00:33;5.20;99.90
21312;DHT22;18076;52.154;10.570;2024-01-27T03:02:58;5.10;99.90
21312;DHT22;18076;52.154;10.570;2024-01-27T03:05:24;5.10;99.90
21312;DHT22;18076;52.154;10.570;2024-01-27T03:07:49;5.10;99.90
21312;DHT22;18076;52.154;10.570;2024-01-27T03:10:15;5.10;99.90
21312;DHT22;18076;52.154;10.570;2024-01-27T03:12:40;5.10;99.90
21312;DHT22;18076;52.154;10.570;2024-01-27T03:15:06;5.10;99.90
21312;DHT22;18076;52.154;10.570;2024-01-27T03:17:31;5.10;99.90
21312;DHT22;18076;52.154;10.570;2024-01-27T03:19:57;5.10;99.90
21312;DHT22;18076;52.154;10.570;2024-01-27T03:22:22;5.10;99.90
21312;DHT22;18076;52.154;10.570;2024-01-27T03:24:48;5.10;99.90
21312;DHT22;18076;52.154;10.570;2024-01-27T03:27:13;5.10;99.90
21312;DHT22;18076;52.154;10.570;2024-01-27T03:29:39;5.10;99.90
21312;DHT22;18076;52.154;10.570;2024-01-27T03:32:04;5.10;99.90
21312;DHT22;18076;52.154;10.570;2024-01-27T03:34:30;5.00;99.90
21312;DHT22;18076;52.154;10.570;2024-01-27T03:36:56;5.00;99.90
21312;DHT22;18076;52.154;10.570;2024-01-27T03:39:21;5.00;99.90
21312;DHT22;18076;52.154;10.570;2024-01-27T03:41:47;5.00;99.90
21312;DHT22;18076;52.154;10.570;2024-01-27T03:44:12;5.00;99.90
21312;DHT22;18076;52.154;10.570;2024-01-27T03:46:38;5.00;99.90
21312;DHT22;18076;52.154;10.570;2024-01-27T03:49:04;5.00;99.90
21312;DHT22;18076;52.154;10.570;2024-01-27T03:51:30;5.00;99.90
21312;DHT22;18076;52.154;10.570;2024-01-27T03:53:55;5.00;99.90
21312;DHT22;18076;52.154;10.570;2024-01-27T03:56:21;5.00;99.90
21312;DHT22;18076;52.154;10.570;2024-01-27T03:58:46;5.00;99.90
21312;DHT22;18076;52.154;10.570;2024-01-27T04:01:12;4.90;99.90
21312;DHT22;18076;52.154;10.570;2024-01-27T04:03:37;4.90;99.90
21312;DHT22;18076;52.154;10.570;2024-01-27T04:06:03;4.90;99.90
21312;DHT22;18076;52.154;10.570;2024-01-27T04:08:31;4.90;99.90
21312;DHT22;18076;52.154;10.570;2024-01-27T04:10:57;4.80;99.90
21312;DHT22;18076;52.154;10.570;2024-01-27T04:13:23;4.70;99.90
21312;DHT22;18076;52.154;10.570;2024-01-27T04:15:48;4.70;99.90
21312;DHT22;18076;52.154;10.570;2024-01-27T04:18:16;4.60;99.90
21312;DHT22;18076;52.154;10.570;2024-01-27T04:20:42;4.50;99.90
21312;DHT22;18076;52.154;10.570;2024-01-27T04:23:07;4.50;99.90
21312;DHT22;18076;52.154;10.570;2024-01-27T04:25:33;4.50;99.90
21312;DHT22;18076;52.154;10.570;2024-01-27T04:27:59;4.40;99.90
21312;DHT22;18076;52.154;10.570;2024-01-27T04:30:24;4.40;99.90
21312;DHT22;18076;52.154;10.570;2024-01-27T04:32:50;4.40;99.90
21312;DHT22;18076;52.154;10.570;2024-01-27T04:35:17;4.40;99.90
21312;DHT22;18076;52.154;10.570;2024-01-27T04:37:43;4.40;99.90
21312;DHT22;18076;52.154;10.570;2024-01-27T04:40:10;4.30;99.90
21312;DHT22;18076;52.154;10.570;2024-01-27T04:42:37;4.30;99.90
21312;DHT22;18076;52.154;10.570;2024-01-27T04:45:03;4.30;99.90
21312;DHT22;18076;52.154;10.570;2024-01-27T04:47:30;4.30;99.90
21312;DHT22;18076;52.154;10.570;2024-01-27T04:49:55;4.20;99.90
21312;DHT22;18076;52.154;10.570;2024-01-27T04:52:22;4.20;99.90
21312;DHT22;18076;52.154;10.570;2024-01-27T04:54:48;4.20;99.90
21312;DHT22;18076;52.154;10.570;2024-01-27T04:57:13;4.10;99.90
21312;DHT22;18076;52.154;10.570;2024-01-27T04:59:39;4.10;99.90
21312;DHT22;18076;52.154;10.570;2024-01-27T05:02:04;4.00;99.90
21312;DHT22;18076;52.154;10.570;2024-01-27T05:04:30;4.00;99.90
21312;DHT22;18076;52.154;10.570;2024-01-27T05:06:56;3.90;99.90
21312;DHT22;18076;52.154;10.570;2024-01-27T05:09:21;3.90;99.90
21312;DHT22;18076;52.154;10.570;2024-01-27T05:11:47;3.80;99.90
21312;DHT22;18076;52.154;10.570;2024-01-27T05:14:14;3.80;99.90
21312;DHT22;18076;52.154;10.570;2024-01-27T05:16:39;3.80;99.90
21312;DHT22;18076;52.154;10.570;2024-01-27T05:19:05;3.70;99.90
21312;DHT22;18076;52.154;10.570;2024-01-27T05:21:30;3.70;99.90
21312;DHT22;18076;52.154;10.570;2024-01-27T05:23:56;3.70;99.90
21312;DHT22;18076;52.154;10.570;2024-01-27T05:26:21;3.70;99.90
21312;DHT22;18076;52.154;10.570;2024-01-27T05:28:47;3.70;99.90
21312;DHT22;18076;52.154;10.570;2024-01-27T05:31:12;3.70;99.90
21312;DHT22;18076;52.154;10.570;2024-01-27T05:33:38;3.60;99.90
21312;DHT22;18076;52.154;10.570;2024-01-27T05:36:04;3.70;99.90
21312;DHT22;18076;52.154;10.570;2024-01-27T05:38:30;3.60;99.90
21312;DHT22;18076;52.154;10.570;2024-01-27T05:40:58;3.70;99.90
21312;DHT22;18076;52.154;10.570;2024-01-27T05:43:25;3.70;99.90
21312;DHT22;18076;52.154;10.570;2024-01-27T05:45:51;3.70;99.90
21312;DHT22;18076;52.154;10.570;2024-01-27T05:48:16;3.70;99.90
21312;DHT22;18076;52.154;10.570;2024-01-27T05:51:16;3.70;99.90
21312;DHT22;18076;52.154;10.570;2024-01-27T05:53:42;3.70;99.90
21312;DHT22;18076;52.154;10.570;2024-01-27T05:56:07;3.70;99.90
21312;DHT22;18076;52.154;10.570;2024-01-27T05:58:33;3.70;99.90
21312;DHT22;18076;52.154;10.570;2024-01-27T06:00:59;3.60;99.90
21312;DHT22;18076;52.154;10.570;2024-01-27T06:03:24;3.60;99.90
21312;DHT22;18076;52.154;10.570;2024-01-27T06:05:50;3.70;99.90
21312;DHT22;18076;52.154;10.570;2024-01-27T06:08:15;3.60;99.90
21312;DHT22;18076;52.154;10.570;2024-01-27T06:10:43;3.60;99.90
21312;DHT22;18076;52.154;10.570;2024-01-27T06:13:08;3.60;99.90
21312;DHT22;18076;52.154;10.570;2024-01-27T06:15:34;3.60;99.90
21312;DHT22;18076;52.154;10.570;2024-01-27T06:17:59;3.60;99.90
21312;DHT22;18076;52.154;10.570;2024-01-27T06:20:25;3.60;99.90
21312;DHT22;18076;52.154;10.570;2024-01-27T06:22:50;3.60;99.90
21312;DHT22;18076;52.154;10.570;2024-01-27T06:25:17;3.70;99.90
21312;DHT22;18076;52.154;10.570;2024-01-27T06:27:43;3.60;99.90
21312;DHT22;18076;52.154;10.570;2024-01-27T06:30:09;3.60;99.90
21312;DHT22;18076;52.154;10.570;2024-01-27T06:32:35;3.70;99.90
21312;DHT22;18076;52.154;10.570;2024-01-27T06:35:01;3.60;99.90
21312;DHT22;18076;52.154;10.570;2024-01-27T06:37:26;3.60;99.90
21312;DHT22;18076;52.154;10.570;2024-01-27T06:39:52;3.60;99.90
21312;DHT22;18076;52.154;10.570;2024-01-27T06:42:17;3.50;99.90
21312;DHT22;18076;52.154;10.570;2024-01-27T06:44:43;3.50;99.90
21312;DHT22;18076;52.154;10.570;2024-01-27T06:47:08;3.50;99.90
21312;DHT22;18076;52.154;10.570;2024-01-27T06:49:34;3.40;99.90
21312;DHT22;18076;52.154;10.570;2024-01-27T06:52:00;3.40;99.90
21312;DHT22;18076;52.154;10.570;2024-01-27T06:54:26;3.40;99.90
21312;DHT22;18076;52.154;10.570;2024-01-27T06:56:51;3.30;99.90
21312;DHT22;18076;52.154;10.570;2024-01-27T06:59:17;3.30;99.90
21312;DHT22;18076;52.154;10.570;2024-01-27T07:01:52;3.30;99.90
21312;DHT22;18076;52.154;10.570;2024-01-27T07:04:25;3.30;99.90
21312;DHT22;18076;52.154;10.570;2024-01-27T07:06:50;3.30;99.90
21312;DHT22;18076;52.154;10.570;2024-01-27T07:09:16;3.30;99.90
21312;DHT22;18076;52.154;10.570;2024-01-27T07:11:42;3.20;99.90
21312;DHT22;18076;52.154;10.570;2024-01-27T07:14:07;3.30;99.90
21312;DHT22;18076;52.154;10.570;2024-01-27T07:16:33;3.30;99.90
21312;DHT22;18076;52.154;10.570;2024-01-27T07:19:00;3.30;99.90
21312;DHT22;18076;52.154;10.570;2024-01-27T07:21:25;3.20;99.90
21312;DHT22;18076;52.154;10.570;2024-01-27T07:23:52;3.20;99.90
21312;DHT22;18076;52.154;10.570;2024-01-27T07:26:19;3.30;99.90
21312;DHT22;18076;52.154;10.570;2024-01-27T07:28:44;3.20;99.90
21312;DHT22;18076;52.154;10.570;2024-01-27T07:31:10;3.20;99.90
21312;DHT22;18076;52.154;10.570;2024-01-27T07:33:36;3.20;99.90
21312;DHT22;18076;52.154;10.570;2024-01-27T07:36:04;3.20;99.90
21312;DHT22;18076;52.154;10.570;2024-01-27T07:38:29;3.30;99.90
21312;DHT22;18076;52.154;10.570;2024-01-27T07:40:55;3.30;99.90
21312;DHT22;18076;52.154;10.570;2024-01-27T07:43:20;3.30;99.90
21312;DHT22;18076;52.154;10.570;2024-01-27T07:45:46;3.30;99.90
21312;DHT22;18076;52.154;10.570;2024-01-27T07:48:11;3.40;99.90
21312;DHT22;18076;52.154;10.570;2024-01-27T07:50:37;3.40;99.90
21312;DHT22;18076;52.154;10.570;2024-01-27T07:53:03;3.40;99.90
21312;DHT22;18076;52.154;10.570;2024-01-27T07:55:28;3.50;99.90
21312;DHT22;18076;52.154;10.570;2024-01-27T07:57:54;3.50;99.90
21312;DHT22;18076;52.154;10.570;2024-01-27T08:00:20;3.60;99.90
21312;DHT22;18076;52.154;10.570;2024-01-27T08:02:45;3.60;99.90
21312;DHT22;18076;52.154;10.570;2024-01-27T08:05:11;3.60;99.90
21312;DHT22;18076;52.154;10.570;2024-01-27T08:07:36;3.70;99.90
21312;DHT22;18076;52.154;10.570;2024-01-27T08:10:02;3.70;99.90
21312;DHT22;18076;52.154;10.570;2024-01-27T08:12:29;3.80;99.90
21312;DHT22;18076;52.154;10.570;2024-01-27T08:14:55;3.90;99.90
21312;DHT22;18076;52.154;10.570;2024-01-27T08:17:20;3.90;99.90
21312;DHT22;18076;52.154;10.570;2024-01-27T08:19:46;4.00;99.90
21312;DHT22;18076;52.154;10.570;2024-01-27T08:22:11;4.10;99.90
21312;DHT22;18076;52.154;10.570;2024-01-27T08:24:37;4.60;99.90
21312;DHT22;18076;52.154;10.570;2024-01-27T08:27:02;5.50;99.90
21312;DHT22;18076;52.154;10.570;2024-01-27T08:29:28;6.30;99.90
21312;DHT22;18076;52.154;10.570;2024-01-27T08:31:54;6.80;99.90
21312;DHT22;18076;52.154;10.570;2024-01-27T08:34:19;7.10;99.90
21312;DHT22;18076;52.154;10.570;2024-01-27T08:36:45;7.30;99.90
21312;DHT22;18076;52.154;10.570;2024-01-27T08:39:10;7.70;99.90
21312;DHT22;18076;52.154;10.570;2024-01-27T08:41:37;8.00;99.90
21312;DHT22;18076;52.154;10.570;2024-01-27T08:44:03;8.30;99.90
21312;DHT22;18076;52.154;10.570;2024-01-27T08:46:28;8.50;99.90
21312;DHT22;18076;52.154;10.570;2024-01-27T08:48:54;8.70;99.90
21312;DHT22;18076;52.154;10.570;2024-01-27T08:51:19;9.00;99.90
21312;DHT22;18076;52.154;10.570;2024-01-27T08:53:45;8.90;99.90
21312;DHT22;18076;52.154;10.570;2024-01-27T08:56:17;9.00;99.90
21312;DHT22;18076;52.154;10.570;2024-01-27T08:58:45;9.50;99.90
21312;DHT22;18076;52.154;10.570;2024-01-27T09:01:12;9.30;99.90
21312;DHT22;18076;52.154;10.570;2024-01-27T09:03:40;9.70;99.90
21312;DHT22;18076;52.154;10.570;2024-01-27T09:06:06;10.30;99.90
21312;DHT22;18076;52.154;10.570;2024-01-27T09:08:33;9.80;99.90
21312;DHT22;18076;52.154;10.570;2024-01-27T09:11:00;9.70;99.90
21312;DHT22;18076;52.154;10.570;2024-01-27T09:13:26;9.90;99.90
21312;DHT22;18076;52.154;10.570;2024-01-27T09:15:52;10.40;99.90
21312;DHT22;18076;52.154;10.570;2024-01-27T09:18:17;10.30;99.90
21312;DHT22;18076;52.154;10.570;2024-01-27T09:20:43;10.10;99.90
21312;DHT22;18076;52.154;10.570;2024-01-27T09:23:08;10.00;99.90
21312;DHT22;18076;52.154;10.570;2024-01-27T09:25:34;10.20;99.90
21312;DHT22;18076;52.154;10.570;2024-01-27T09:27:59;10.30;99.90
21312;DHT22;18076;52.154;10.570;2024-01-27T09:30:28;10.40;99.90
21312;DHT22;18076;52.154;10.570;2024-01-27T09:32:54;10.80;99.90
21312;DHT22;18076;52.154;10.570;2024-01-27T09:35:19;10.40;99.90
21312;DHT22;18076;52.154;10.570;2024-01-27T09:37:45;10.60;99.90
21312;DHT22;18076;52.154;10.570;2024-01-27T09:40:12;10.90;99.90
21312;DHT22;18076;52.154;10.570;2024-01-27T09:42:37;11.00;99.90
21312;DHT22;18076;52.154;10.570;2024-01-27T09:45:04;10.80;99.90
21312;DHT22;18076;52.154;10.570;2024-01-27T09:47:30;10.90;99.90
21312;DHT22;18076;52.154;10.570;2024-01-27T09:49:56;11.10;99.90
21312;DHT22;18076;52.154;10.570;2024-01-27T09:52:22;10.90;99.90
21312;DHT22;18076;52.154;10.570;2024-01-27T09:54:47;10.80;99.90
21312;DHT22;18076;52.154;10.570;2024-01-27T09:57:13;10.80;99.90
21312;DHT22;18076;52.154;10.570;2024-01-27T09:59:42;11.10;99.90
21312;DHT22;18076;52.154;10.570;2024-01-27T10:02:09;10.80;99.90
21312;DHT22;18076;52.154;10.570;2024-01-27T10:04:37;11.00;99.90
21312;DHT22;18076;52.154;10.570;2024-01-27T10:07:03;11.30;99.90
21312;DHT22;18076;52.154;10.570;2024-01-27T10:09:29;11.20;99.90
21312;DHT22;18076;52.154;10.570;2024-01-27T10:11:55;11.20;99.90
21312;DHT22;18076;52.154;10.570;2024-01-27T10:14:20;11.10;99.90
21312;DHT22;18076;52.154;10.570;2024-01-27T10:16:46;11.00;99.90
21312;DHT22;18076;52.154;10.570;2024-01-27T10:19:14;10.90;99.90
21312;DHT22;18076;52.154;10.570;2024-01-27T10:21:41;10.90;99.90
21312;DHT22;18076;52.154;10.570;2024-01-27T10:24:06;10.80;99.90
21312;DHT22;18076;52.154;10.570;2024-01-27T10:26:33;10.90;99.90
21312;DHT22;18076;52.154;10.570;2024-01-27T10:29:00;11.50;99.90
21312;DHT22;18076;52.154;10.570;2024-01-27T10:31:30;11.60;99.90
21312;DHT22;18076;52.154;10.570;2024-01-27T10:33:56;11.50;99.90
21312;DHT22;18076;52.154;10.570;2024-01-27T10:36:22;11.70;99.90
21312;DHT22;18076;52.154;10.570;2024-01-27T10:38:48;11.70;99.90
21312;DHT22;18076;52.154;10.570;2024-01-27T10:41:19;11.80;99.90
21312;DHT22;18076;52.154;10.570;2024-01-27T10:43:46;12.10;99.90
21312;DHT22;18076;52.154;10.570;2024-01-27T10:46:12;11.80;99.90
21312;DHT22;18076;52.154;10.570;2024-01-27T10:48:39;11.70;99.90
21312;DHT22;18076;52.154;10.570;2024-01-27T10:51:07;11.80;99.90
21312;DHT22;18076;52.154;10.570;2024-01-27T10:53:33;12.40;99.90
21312;DHT22;18076;52.154;10.570;2024-01-27T10:56:00;12.50;99.90
21312;DHT22;18076;52.154;10.570;2024-01-27T10:58:27;12.80;99.90
21312;DHT22;18076;52.154;10.570;2024-01-27T11:00:53;13.10;99.90
21312;DHT22;18076;52.154;10.570;2024-01-27T11:03:21;13.40;99.90
21312;DHT22;18076;52.154;10.570;2024-01-27T11:05:47;13.20;99.90
21312;DHT22;18076;52.154;10.570;2024-01-27T11:08:14;12.50;99.90
21312;DHT22;18076;52.154;10.570;2024-01-27T11:10:41;12.60;99.90
21312;DHT22;18076;52.154;10.570;2024-01-27T11:13:07;12.30;99.90
21312;DHT22;18076;52.154;10.570;2024-01-27T11:15:33;12.10;99.90
21312;DHT22;18076;52.154;10.570;2024-01-27T11:17:58;12.10;99.90
21312;DHT22;18076;52.154;10.570;2024-01-27T11:20:33;12.20;99.90
21312;DHT22;18076;52.154;10.570;2024-01-27T11:23:08;11.70;99.90
21312;DHT22;18076;52.154;10.570;2024-01-27T11:25:34;11.00;99.90
21312;DHT22;18076;52.154;10.570;2024-01-27T11:27:59;10.80;99.90
21312;DHT22;18076;52.154;10.570;2024-01-27T11:30:35;10.50;99.90
21312;DHT22;18076;52.154;10.570;2024-01-27T11:33:05;10.60;99.90
21312;DHT22;18076;52.154;10.570;2024-01-27T11:35:31;10.50;99.90
21312;DHT22;18076;52.154;10.570;2024-01-27T11:37:56;10.30;99.90
21312;DHT22;18076;52.154;10.570;2024-01-27T11:40:22;10.30;99.90
21312;DHT22;18076;52.154;10.570;2024-01-27T11:42:54;10.30;99.90
21312;DHT22;18076;52.154;10.570;2024-01-27T11:45:20;10.60;99.90
21312;DHT22;18076;52.154;10.570;2024-01-27T11:47:46;10.90;99.90
21312;DHT22;18076;52.154;10.570;2024-01-27T11:50:11;11.00;99.90
21312;DHT22;18076;52.154;10.570;2024-01-27T11:52:37;10.90;99.90
21312;DHT22;18076;52.154;10.570;2024-01-27T11:55:02;10.80;99.90
21312;DHT22;18076;52.154;10.570;2024-01-27T11:57:29;10.80;99.90
21312;DHT22;18076;52.154;10.570;2024-01-27T11:59:55;11.10;99.90
21312;DHT22;18076;52.154;10.570;2024-01-27T12:02:21;11.90;99.90
21312;DHT22;18076;52.154;10.570;2024-01-27T12:04:47;12.30;99.90
21312;DHT22;18076;52.154;10.570;2024-01-27T12:07:12;12.20;99.90
21312;DHT22;18076;52.154;10.570;2024-01-27T12:09:38;12.20;99.90
21312;DHT22;18076;52.154;10.570;2024-01-27T12:12:04;12.50;99.90
21312;DHT22;18076;52.154;10.570;2024-01-27T12:14:39;12.50;99.90
21312;DHT22;18076;52.154;10.570;2024-01-27T12:17:07;12.70;99.90
21312;DHT22;18076;52.154;10.570;2024-01-27T12:19:33;12.50;99.90
21312;DHT22;18076;52.154;10.570;2024-01-27T12:21:58;12.40;99.90
21312;DHT22;18076;52.154;10.570;2024-01-27T12:24:24;12.10;99.90
21312;DHT22;18076;52.154;10.570;2024-01-27T12:26:49;12.20;99.90
21312;DHT22;18076;52.154;10.570;2024-01-27T12:29:15;12.10;99.90
21312;DHT22;18076;52.154;10.570;2024-01-27T12:31:41;12.10;99.90
21312;DHT22;18076;52.154;10.570;2024-01-27T12:34:06;12.00;99.90
21312;DHT22;18076;52.154;10.570;2024-01-27T12:36:32;11.90;99.90
21312;DHT22;18076;52.154;10.570;2024-01-27T12:38:59;12.40;99.90
21312;DHT22;18076;52.154;10.570;2024-01-27T12:41:25;12.80;99.90
21312;DHT22;18076;52.154;10.570;2024-01-27T12:43:51;13.20;99.90
21312;DHT22;18076;52.154;10.570;2024-01-27T12:46:16;13.10;99.90
21312;DHT22;18076;52.154;10.570;2024-01-27T12:48:42;13.20;99.90
21312;DHT22;18076;52.154;10.570;2024-01-27T12:51:08;13.20;99.90
21312;DHT22;18076;52.154;10.570;2024-01-27T12:53:34;12.80;99.90
21312;DHT22;18076;52.154;10.570;2024-01-27T12:56:00;12.60;99.90
21312;DHT22;18076;52.154;10.570;2024-01-27T12:58:25;12.60;99.90
21312;DHT22;18076;52.154;10.570;2024-01-27T13:00:51;12.50;99.90
21312;DHT22;18076;52.154;10.570;2024-01-27T13:03:16;12.10;99.90
21312;DHT22;18076;52.154;10.570;2024-01-27T13:05:43;11.90;99.90
21312;DHT22;18076;52.154;10.570;2024-01-27T13:08:08;12.10;99.90
21312;DHT22;18076;52.154;10.570;2024-01-27T13:10:34;12.10;99.90
21312;DHT22;18076;52.154;10.570;2024-01-27T13:12:59;11.80;99.90
21312;DHT22;18076;52.154;10.570;2024-01-27T13:15:25;11.80;99.90
21312;DHT22;18076;52.154;10.570;2024-01-27T13:17:51;11.50;99.90
21312;DHT22;18076;52.154;10.570;2024-01-27T13:20:17;11.70;99.90
21312;DHT22;18076;52.154;10.570;2024-01-27T13:22:43;12.10;99.90
21312;DHT22;18076;52.154;10.570;2024-01-27T13:25:09;12.20;99.90
21312;DHT22;18076;52.154;10.570;2024-01-27T13:27:34;12.20;99.90
21312;DHT22;18076;52.154;10.570;2024-01-27T13:30:00;11.90;99.90
21312;DHT22;18076;52.154;10.570;2024-01-27T13:32:25;12.00;99.90
21312;DHT22;18076;52.154;10.570;2024-01-27T13:34:52;11.80;99.90
21312;DHT22;18076;52.154;10.570;2024-01-27T13:37:17;11.50;99.90
21312;DHT22;18076;52.154;10.570;2024-01-27T13:39:43;11.20;99.90
21312;DHT22;18076;52.154;10.570;2024-01-27T13:42:09;10.90;99.90
21312;DHT22;18076;52.154;10.570;2024-01-27T13:44:35;10.70;99.90
21312;DHT22;18076;52.154;10.570;2024-01-27T13:47:04;10.70;99.90
21312;DHT22;18076;52.154;10.570;2024-01-27T13:49:33;10.70;99.90
21312;DHT22;18076;52.154;10.570;2024-01-27T13:51:58;10.60;99.90
21312;DHT22;18076;52.154;10.570;2024-01-27T13:54:24;10.50;99.90
21312;DHT22;18076;52.154;10.570;2024-01-27T13:56:50;10.50;99.90
21312;DHT22;18076;52.154;10.570;2024-01-27T13:59:16;10.40;99.90
21312;DHT22;18076;52.154;10.570;2024-01-27T14:01:41;10.40;99.90
21312;DHT22;18076;52.154;10.570;2024-01-27T14:04:07;10.40;99.90
21312;DHT22;18076;52.154;10.570;2024-01-27T14:06:33;10.70;99.90
21312;DHT22;18076;52.154;10.570;2024-01-27T14:08:59;10.80;99.90
21312;DHT22;18076;52.154;10.570;2024-01-27T14:11:27;10.90;99.90
21312;DHT22;18076;52.154;10.570;2024-01-27T14:13:52;10.90;99.90
21312;DHT22;18076;52.154;10.570;2024-01-27T14:16:18;11.10;99.90
21312;DHT22;18076;52.154;10.570;2024-01-27T14:18:44;11.10;99.90
21312;DHT22;18076;52.154;10.570;2024-01-27T14:21:09;11.10;99.90
21312;DHT22;18076;52.154;10.570;2024-01-27T14:23:36;11.30;99.90
21312;DHT22;18076;52.154;10.570;2024-01-27T14:26:03;11.40;99.90
21312;DHT22;18076;52.154;10.570;2024-01-27T14:28:28;11.20;99.90
21312;DHT22;18076;52.154;10.570;2024-01-27T14:30:54;11.40;99.90
21312;DHT22;18076;52.154;10.570;2024-01-27T14:33:20;11.20;99.90
21312;DHT22;18076;52.154;10.570;2024-01-27T14:35:46;10.80;99.90
21312;DHT22;18076;52.154;10.570;2024-01-27T14:38:12;10.70;99.90
21312;DHT22;18076;52.154;10.570;2024-01-27T14:40:38;10.50;99.90
21312;DHT22;18076;52.154;10.570;2024-01-27T14:43:04;10.30;99.90
21312;DHT22;18076;52.154;10.570;2024-01-27T14:45:34;10.30;99.90
21312;DHT22;18076;52.154;10.570;2024-01-27T14:48:00;10.30;99.90
21312;DHT22;18076;52.154;10.570;2024-01-27T14:50:26;10.30;99.90
21312;DHT22;18076;52.154;10.570;2024-01-27T14:52:52;10.30;99.90
21312;DHT22;18076;52.154;10.570;2024-01-27T14:55:17;10.40;99.90
21312;DHT22;18076;52.154;10.570;2024-01-27T14:57:43;10.50;99.90
21312;DHT22;18076;52.154;10.570;2024-01-27T15:00:09;10.50;99.90
21312;DHT22;18076;52.154;10.570;2024-01-27T15:02:35;10.50;99.90
21312;DHT22;18076;52.154;10.570;2024-01-27T15:05:00;10.60;99.90
21312;DHT22;18076;52.154;10.570;2024-01-27T15:07:26;10.30;99.90
21312;DHT22;18076;52.154;10.570;2024-01-27T15:09:55;10.10;99.90
21312;DHT22;18076;52.154;10.570;2024-01-27T15:12:21;9.90;99.90
21312;DHT22;18076;52.154;10.570;2024-01-27T15:14:46;9.90;99.90
21312;DHT22;18076;52.154;10.570;2024-01-27T15:17:12;9.80;99.90